sensor_id;sensor_type;location;lat;lon;timestamp;P1;durP1;ratioP1;P2;durP2;ratioP2
76065;SDS011;64763;48.928;8.474;2023-12-14T00:01:41;5.80;;;2.50;;
76065;SDS011;64763;48.928;8.474;2023-12-14T00:04:07;5.43;;;2.42;;
76065;SDS011;64763;48.928;8.474;2023-12-14T00:06:32;6.20;;;2.50;;
76065;SDS011;64763;48.928;8.474;2023-12-14T00:08:58;4.72;;;2.10;;
76065;SDS011;64763;48.928;8.474;2023-12-14T00:11:23;3.60;;;2.30;;
76065;SDS011;64763;48.928;8.474;2023-12-14T00:13:48;4.65;;;2.75;;
76065;SDS011;64763;48.928;8.474;2023-12-14T00:16:14;5.60;;;2.78;;
76065;SDS011;64763;48.928;8.474;2023-12-14T00:18:42;8.15;;;3.20;;
76065;SDS011;64763;48.928;8.474;2023-12-14T00:21:07;6.40;;;2.55;;
76065;SDS011;64763;48.928;8.474;2023-12-14T00:23:35;4.45;;;2.22;;
76065;SDS011;64763;48.928;8.474;2023-12-14T00:26:01;4.32;;;2.33;;
76065;SDS011;64763;48.928;8.474;2023-12-14T00:28:26;5.60;;;3.00;;
76065;SDS011;64763;48.928;8.474;2023-12-14T00:30:51;6.00;;;2.25;;
76065;SDS011;64763;48.928;8.474;2023-12-14T00:33:17;4.13;;;2.40;;
76065;SDS011;64763;48.928;8.474;2023-12-14T00:35:42;5.10;;;2.22;;
76065;SDS011;64763;48.928;8.474;2023-12-14T00:38:07;3.60;;;2.40;;
76065;SDS011;64763;48.928;8.474;2023-12-14T00:40:33;4.22;;;2.38;;
76065;SDS011;64763;48.928;8.474;2023-12-14T00:42:58;5.32;;;3.20;;
76065;SDS011;64763;48.928;8.474;2023-12-14T00:45:23;3.95;;;2.58;;
76065;SDS011;64763;48.928;8.474;2023-12-14T00:47:49;5.80;;;3.08;;
76065;SDS011;64763;48.928;8.474;2023-12-14T00:50:14;5.53;;;3.13;;
76065;SDS011;64763;48.928;8.474;2023-12-14T00:52:39;9.18;;;3.20;;
76065;SDS011;64763;48.928;8.474;2023-12-14T00:55:05;6.15;;;3.10;;
76065;SDS011;64763;48.928;8.474;2023-12-14T00:57:30;7.28;;;3.28;;
76065;SDS011;64763;48.928;8.474;2023-12-14T00:59:56;12.02;;;3.75;;
76065;SDS011;64763;48.928;8.474;2023-12-14T01:02:21;9.60;;;3.85;;
76065;SDS011;64763;48.928;8.474;2023-12-14T01:04:47;8.43;;;4.25;;
76065;SDS011;64763;48.928;8.474;2023-12-14T01:07:12;6.45;;;3.50;;
76065;SDS011;64763;48.928;8.474;2023-12-14T01:09:38;5.70;;;3.45;;
76065;SDS011;64763;48.928;8.474;2023-12-14T01:12:03;7.82;;;3.67;;
76065;SDS011;64763;48.928;8.474;2023-12-14T01:14:29;5.75;;;2.90;;
76065;SDS011;64763;48.928;8.474;2023-12-14T01:16:54;7.70;;;3.05;;
76065;SDS011;64763;48.928;8.474;2023-12-14T01:19:20;4.70;;;2.65;;
76065;SDS011;64763;48.928;8.474;2023-12-14T01:21:45;4.97;;;2.42;;
76065;SDS011;64763;48.928;8.474;2023-12-14T01:24:10;5.00;;;2.88;;
76065;SDS011;64763;48.928;8.474;2023-12-14T01:26:36;5.22;;;2.83;;
76065;SDS011;64763;48.928;8.474;2023-12-14T01:29:01;6.80;;;2.60;;
76065;SDS011;64763;48.928;8.474;2023-12-14T01:31:29;3.30;;;2.10;;
76065;SDS011;64763;48.928;8.474;2023-12-14T01:33:55;3.65;;;2.30;;
76065;SDS011;64763;48.928;8.474;2023-12-14T01:36:23;4.72;;;2.25;;
76065;SDS011;64763;48.928;8.474;2023-12-14T01:38:49;5.20;;;1.90;;
76065;SDS011;64763;48.928;8.474;2023-12-14T01:41:15;3.97;;;2.10;;
76065;SDS011;64763;48.928;8.474;2023-12-14T01:43:40;5.53;;;2.22;;
76065;SDS011;64763;48.928;8.474;2023-12-14T01:46:06;4.72;;;2.00;;
76065;SDS011;64763;48.928;8.474;2023-12-14T01:48:31;3.22;;;2.25;;
76065;SDS011;64763;48.928;8.474;2023-12-14T01:50:57;4.60;;;1.85;;
76065;SDS011;64763;48.928;8.474;2023-12-14T01:53:22;4.30;;;1.80;;
76065;SDS011;64763;48.928;8.474;2023-12-14T01:55:48;3.72;;;2.00;;
76065;SDS011;64763;48.928;8.474;2023-12-14T01:58:13;5.18;;;1.92;;
76065;SDS011;64763;48.928;8.474;2023-12-14T02:03:11;4.22;;;1.83;;
76065;SDS011;64763;48.928;8.474;2023-12-14T02:05:37;4.95;;;1.95;;
76065;SDS011;64763;48.928;8.474;2023-12-14T02:08:02;4.13;;;2.08;;
76065;SDS011;64763;48.928;8.474;2023-12-14T02:10:27;4.50;;;2.00;;
76065;SDS011;64763;48.928;8.474;2023-12-14T02:12:53;6.95;;;1.92;;
76065;SDS011;64763;48.928;8.474;2023-12-14T02:15:18;3.95;;;2.20;;
76065;SDS011;64763;48.928;8.474;2023-12-14T02:17:43;4.57;;;2.10;;
76065;SDS011;64763;48.928;8.474;2023-12-14T02:20:09;7.05;;;2.63;;
76065;SDS011;64763;48.928;8.474;2023-12-14T02:22:36;4.93;;;2.20;;
76065;SDS011;64763;48.928;8.474;2023-12-14T02:25:14;4.65;;;2.25;;
76065;SDS011;64763;48.928;8.474;2023-12-14T02:27:39;5.53;;;2.65;;
76065;SDS011;64763;48.928;8.474;2023-12-14T02:30:05;5.90;;;2.90;;
76065;SDS011;64763;48.928;8.474;2023-12-14T02:32:31;5.00;;;2.75;;
76065;SDS011;64763;48.928;8.474;2023-12-14T02:34:56;4.72;;;2.85;;
76065;SDS011;64763;48.928;8.474;2023-12-14T02:37:21;5.75;;;2.92;;
76065;SDS011;64763;48.928;8.474;2023-12-14T02:39:47;8.00;;;2.65;;
76065;SDS011;64763;48.928;8.474;2023-12-14T02:42:12;4.03;;;2.70;;
76065;SDS011;64763;48.928;8.474;2023-12-14T02:44:37;4.70;;;2.50;;
76065;SDS011;64763;48.928;8.474;2023-12-14T02:47:03;6.03;;;2.80;;
76065;SDS011;64763;48.928;8.474;2023-12-14T02:49:28;5.82;;;2.67;;
76065;SDS011;64763;48.928;8.474;2023-12-14T02:51:54;5.32;;;2.97;;
76065;SDS011;64763;48.928;8.474;2023-12-14T02:54:19;8.20;;;3.35;;
76065;SDS011;64763;48.928;8.474;2023-12-14T02:56:44;6.13;;;3.30;;
76065;SDS011;64763;48.928;8.474;2023-12-14T02:59:10;6.93;;;3.13;;
76065;SDS011;64763;48.928;8.474;2023-12-14T03:01:35;7.60;;;3.42;;
76065;SDS011;64763;48.928;8.474;2023-12-14T03:04:00;8.05;;;3.28;;
76065;SDS011;64763;48.928;8.474;2023-12-14T03:06:26;5.90;;;3.60;;
76065;SDS011;64763;48.928;8.474;2023-12-14T03:08:51;10.00;;;4.45;;
76065;SDS011;64763;48.928;8.474;2023-12-14T03:11:23;8.88;;;3.45;;
76065;SDS011;64763;48.928;8.474;2023-12-14T03:13:48;8.10;;;3.95;;
76065;SDS011;64763;48.928;8.474;2023-12-14T03:16:14;8.30;;;4.25;;
76065;SDS011;64763;48.928;8.474;2023-12-14T03:18:41;7.25;;;4.38;;
76065;SDS011;64763;48.928;8.474;2023-12-14T03:21:07;8.82;;;4.13;;
76065;SDS011;64763;48.928;8.474;2023-12-14T03:23:32;7.10;;;4.07;;
76065;SDS011;64763;48.928;8.474;2023-12-14T03:25:58;10.57;;;5.25;;
76065;SDS011;64763;48.928;8.474;2023-12-14T03:28:23;8.93;;;4.28;;
76065;SDS011;64763;48.928;8.474;2023-12-14T03:30:49;7.95;;;4.45;;
76065;SDS011;64763;48.928;8.474;2023-12-14T03:33:14;7.75;;;4.10;;
76065;SDS011;64763;48.928;8.474;2023-12-14T03:35:39;10.20;;;4.03;;
76065;SDS011;64763;48.928;8.474;2023-12-14T03:38:07;8.40;;;4.40;;
76065;SDS011;64763;48.928;8.474;2023-12-14T03:40:32;7.55;;;3.92;;
76065;SDS011;64763;48.928;8.474;2023-12-14T03:42:58;6.72;;;3.70;;
76065;SDS011;64763;48.928;8.474;2023-12-14T03:45:23;8.50;;;3.92;;
76065;SDS011;64763;48.928;8.474;2023-12-14T03:47:48;7.57;;;4.07;;
76065;SDS011;64763;48.928;8.474;2023-12-14T03:50:14;7.90;;;3.50;;
76065;SDS011;64763;48.928;8.474;2023-12-14T03:52:39;6.03;;;3.20;;
76065;SDS011;64763;48.928;8.474;2023-12-14T03:55:05;4.70;;;2.80;;
76065;SDS011;64763;48.928;8.474;2023-12-14T03:57:30;5.70;;;3.10;;
76065;SDS011;64763;48.928;8.474;2023-12-14T03:59:56;5.68;;;3.17;;
76065;SDS011;64763;48.928;8.474;2023-12-14T04:02:21;6.72;;;3.65;;
76065;SDS011;64763;48.928;8.474;2023-12-14T04:04:47;6.45;;;3.47;;
76065;SDS011;64763;48.928;8.474;2023-12-14T04:07:12;7.15;;;3.83;;
76065;SDS011;64763;48.928;8.474;2023-12-14T04:09:38;8.70;;;4.40;;
76065;SDS011;64763;48.928;8.474;2023-12-14T04:12:03;11.18;;;5.03;;
76065;SDS011;64763;48.928;8.474;2023-12-14T04:14:29;10.32;;;5.30;;
76065;SDS011;64763;48.928;8.474;2023-12-14T04:16:54;10.40;;;4.63;;
76065;SDS011;64763;48.928;8.474;2023-12-14T04:19:20;10.52;;;6.32;;
76065;SDS011;64763;48.928;8.474;2023-12-14T04:21:46;11.18;;;5.32;;
76065;SDS011;64763;48.928;8.474;2023-12-14T04:24:12;12.80;;;6.18;;
76065;SDS011;64763;48.928;8.474;2023-12-14T04:26:37;11.77;;;6.00;;
76065;SDS011;64763;48.928;8.474;2023-12-14T04:29:03;12.93;;;6.82;;
76065;SDS011;64763;48.928;8.474;2023-12-14T04:31:28;13.32;;;5.93;;
76065;SDS011;64763;48.928;8.474;2023-12-14T04:33:54;11.95;;;5.85;;
76065;SDS011;64763;48.928;8.474;2023-12-14T04:36:19;12.32;;;5.93;;
76065;SDS011;64763;48.928;8.474;2023-12-14T04:38:44;12.35;;;5.35;;
76065;SDS011;64763;48.928;8.474;2023-12-14T04:41:11;11.57;;;5.38;;
76065;SDS011;64763;48.928;8.474;2023-12-14T04:43:37;10.20;;;5.50;;
76065;SDS011;64763;48.928;8.474;2023-12-14T04:46:02;12.88;;;5.68;;
76065;SDS011;64763;48.928;8.474;2023-12-14T04:48:28;11.68;;;5.85;;
76065;SDS011;64763;48.928;8.474;2023-12-14T04:50:53;11.48;;;5.88;;
76065;SDS011;64763;48.928;8.474;2023-12-14T04:53:18;8.15;;;5.22;;
76065;SDS011;64763;48.928;8.474;2023-12-14T04:55:44;12.27;;;5.05;;
76065;SDS011;64763;48.928;8.474;2023-12-14T04:58:09;10.27;;;5.60;;
76065;SDS011;64763;48.928;8.474;2023-12-14T05:00:34;10.20;;;5.57;;
76065;SDS011;64763;48.928;8.474;2023-12-14T05:03:00;10.73;;;5.18;;
76065;SDS011;64763;48.928;8.474;2023-12-14T05:05:25;11.30;;;5.55;;
76065;SDS011;64763;48.928;8.474;2023-12-14T05:07:50;14.52;;;6.15;;
76065;SDS011;64763;48.928;8.474;2023-12-14T05:10:16;12.27;;;6.05;;
76065;SDS011;64763;48.928;8.474;2023-12-14T05:12:41;10.07;;;5.50;;
76065;SDS011;64763;48.928;8.474;2023-12-14T05:15:07;10.85;;;5.32;;
76065;SDS011;64763;48.928;8.474;2023-12-14T05:17:32;14.38;;;6.03;;
76065;SDS011;64763;48.928;8.474;2023-12-14T05:19:59;14.10;;;6.38;;
76065;SDS011;64763;48.928;8.474;2023-12-14T05:22:25;15.63;;;6.85;;
76065;SDS011;64763;48.928;8.474;2023-12-14T05:24:50;17.63;;;7.13;;
76065;SDS011;64763;48.928;8.474;2023-12-14T05:27:15;13.55;;;6.28;;
76065;SDS011;64763;48.928;8.474;2023-12-14T05:29:41;12.13;;;6.30;;
76065;SDS011;64763;48.928;8.474;2023-12-14T05:32:06;12.88;;;7.00;;
76065;SDS011;64763;48.928;8.474;2023-12-14T05:34:31;12.98;;;6.47;;
76065;SDS011;64763;48.928;8.474;2023-12-14T05:36:57;16.27;;;7.07;;
76065;SDS011;64763;48.928;8.474;2023-12-14T05:39:22;17.83;;;6.70;;
76065;SDS011;64763;48.928;8.474;2023-12-14T05:41:47;15.80;;;7.38;;
76065;SDS011;64763;48.928;8.474;2023-12-14T05:44:13;15.88;;;7.47;;
76065;SDS011;64763;48.928;8.474;2023-12-14T05:46:38;15.20;;;7.22;;
76065;SDS011;64763;48.928;8.474;2023-12-14T05:49:03;16.02;;;7.60;;
76065;SDS011;64763;48.928;8.474;2023-12-14T05:51:29;16.60;;;7.50;;
76065;SDS011;64763;48.928;8.474;2023-12-14T05:53:55;12.90;;;7.13;;
76065;SDS011;64763;48.928;8.474;2023-12-14T05:56:21;15.23;;;7.45;;
76065;SDS011;64763;48.928;8.474;2023-12-14T05:58:46;13.88;;;7.60;;
76065;SDS011;64763;48.928;8.474;2023-12-14T06:01:12;18.60;;;8.20;;
76065;SDS011;64763;48.928;8.474;2023-12-14T06:03:38;16.70;;;7.82;;
76065;SDS011;64763;48.928;8.474;2023-12-14T06:06:03;16.40;;;7.88;;
76065;SDS011;64763;48.928;8.474;2023-12-14T06:08:29;16.60;;;8.82;;
76065;SDS011;64763;48.928;8.474;2023-12-14T06:10:54;15.13;;;7.03;;
76065;SDS011;64763;48.928;8.474;2023-12-14T06:13:20;14.93;;;8.68;;
76065;SDS011;64763;48.928;8.474;2023-12-14T06:15:46;13.52;;;7.25;;
76065;SDS011;64763;48.928;8.474;2023-12-14T06:18:11;15.07;;;8.57;;
76065;SDS011;64763;48.928;8.474;2023-12-14T06:20:37;16.67;;;8.20;;
76065;SDS011;64763;48.928;8.474;2023-12-14T06:23:02;12.93;;;7.45;;
76065;SDS011;64763;48.928;8.474;2023-12-14T06:25:28;14.88;;;6.75;;
76065;SDS011;64763;48.928;8.474;2023-12-14T06:27:53;15.20;;;6.57;;
76065;SDS011;64763;48.928;8.474;2023-12-14T06:30:19;16.50;;;6.35;;
76065;SDS011;64763;48.928;8.474;2023-12-14T06:32:44;16.70;;;7.40;;
76065;SDS011;64763;48.928;8.474;2023-12-14T06:35:10;13.70;;;7.20;;
76065;SDS011;64763;48.928;8.474;2023-12-14T06:37:35;14.77;;;7.85;;
76065;SDS011;64763;48.928;8.474;2023-12-14T06:40:01;14.07;;;7.47;;
76065;SDS011;64763;48.928;8.474;2023-12-14T06:42:27;14.05;;;7.22;;
76065;SDS011;64763;48.928;8.474;2023-12-14T06:44:53;14.90;;;6.90;;
76065;SDS011;64763;48.928;8.474;2023-12-14T06:47:18;13.13;;;7.30;;
76065;SDS011;64763;48.928;8.474;2023-12-14T06:49:43;16.23;;;7.03;;
76065;SDS011;64763;48.928;8.474;2023-12-14T06:52:09;14.77;;;7.05;;
76065;SDS011;64763;48.928;8.474;2023-12-14T06:54:34;15.05;;;7.80;;
76065;SDS011;64763;48.928;8.474;2023-12-14T06:57:00;15.70;;;7.82;;
76065;SDS011;64763;48.928;8.474;2023-12-14T06:59:26;14.88;;;7.22;;
76065;SDS011;64763;48.928;8.474;2023-12-14T07:01:51;14.90;;;7.03;;
76065;SDS011;64763;48.928;8.474;2023-12-14T07:04:17;20.02;;;8.80;;
76065;SDS011;64763;48.928;8.474;2023-12-14T07:06:49;19.80;;;9.57;;
76065;SDS011;64763;48.928;8.474;2023-12-14T07:11:41;17.03;;;8.10;;
76065;SDS011;64763;48.928;8.474;2023-12-14T07:14:06;17.45;;;7.85;;
76065;SDS011;64763;48.928;8.474;2023-12-14T07:16:32;22.60;;;7.50;;
76065;SDS011;64763;48.928;8.474;2023-12-14T07:18:57;19.35;;;8.07;;
76065;SDS011;64763;48.928;8.474;2023-12-14T07:21:26;16.30;;;8.35;;
76065;SDS011;64763;48.928;8.474;2023-12-14T07:23:51;18.98;;;8.18;;
76065;SDS011;64763;48.928;8.474;2023-12-14T07:26:16;17.58;;;8.15;;
76065;SDS011;64763;48.928;8.474;2023-12-14T07:28:42;17.90;;;8.20;;
76065;SDS011;64763;48.928;8.474;2023-12-14T07:31:07;19.52;;;8.00;;
76065;SDS011;64763;48.928;8.474;2023-12-14T07:33:32;19.77;;;9.07;;
76065;SDS011;64763;48.928;8.474;2023-12-14T07:35:58;17.33;;;8.20;;
76065;SDS011;64763;48.928;8.474;2023-12-14T07:38:23;15.30;;;7.43;;
76065;SDS011;64763;48.928;8.474;2023-12-14T07:40:48;20.60;;;8.52;;
76065;SDS011;64763;48.928;8.474;2023-12-14T07:43:15;14.23;;;7.22;;
76065;SDS011;64763;48.928;8.474;2023-12-14T07:45:40;18.55;;;8.10;;
76065;SDS011;64763;48.928;8.474;2023-12-14T07:48:06;16.58;;;8.00;;
76065;SDS011;64763;48.928;8.474;2023-12-14T07:50:31;19.33;;;7.53;;
76065;SDS011;64763;48.928;8.474;2023-12-14T07:52:56;17.70;;;8.48;;
76065;SDS011;64763;48.928;8.474;2023-12-14T07:55:22;15.43;;;6.68;;
76065;SDS011;64763;48.928;8.474;2023-12-14T07:57:47;16.90;;;7.28;;
76065;SDS011;64763;48.928;8.474;2023-12-14T08:00:13;19.52;;;7.13;;
76065;SDS011;64763;48.928;8.474;2023-12-14T08:02:40;16.33;;;6.88;;
76065;SDS011;64763;48.928;8.474;2023-12-14T08:05:07;17.42;;;8.02;;
76065;SDS011;64763;48.928;8.474;2023-12-14T08:07:32;17.65;;;8.18;;
76065;SDS011;64763;48.928;8.474;2023-12-14T08:09:58;19.98;;;7.80;;
76065;SDS011;64763;48.928;8.474;2023-12-14T08:12:24;16.25;;;7.28;;
76065;SDS011;64763;48.928;8.474;2023-12-14T08:14:50;16.60;;;8.13;;
76065;SDS011;64763;48.928;8.474;2023-12-14T08:17:15;17.85;;;7.97;;
76065;SDS011;64763;48.928;8.474;2023-12-14T08:19:41;19.67;;;7.63;;
76065;SDS011;64763;48.928;8.474;2023-12-14T08:22:07;17.20;;;8.23;;
76065;SDS011;64763;48.928;8.474;2023-12-14T08:24:35;20.25;;;9.45;;
76065;SDS011;64763;48.928;8.474;2023-12-14T08:27:01;15.18;;;7.25;;
76065;SDS011;64763;48.928;8.474;2023-12-14T08:29:26;16.05;;;7.57;;
76065;SDS011;64763;48.928;8.474;2023-12-14T08:31:52;17.25;;;7.47;;
76065;SDS011;64763;48.928;8.474;2023-12-14T08:34:18;16.38;;;7.38;;
76065;SDS011;64763;48.928;8.474;2023-12-14T08:36:43;16.65;;;7.35;;
76065;SDS011;64763;48.928;8.474;2023-12-14T08:39:12;15.75;;;7.63;;
76065;SDS011;64763;48.928;8.474;2023-12-14T08:41:37;16.35;;;7.93;;
76065;SDS011;64763;48.928;8.474;2023-12-14T08:44:02;19.30;;;7.85;;
76065;SDS011;64763;48.928;8.474;2023-12-14T08:46:28;15.93;;;8.07;;
76065;SDS011;64763;48.928;8.474;2023-12-14T08:48:53;16.48;;;7.95;;
76065;SDS011;64763;48.928;8.474;2023-12-14T08:51:19;18.27;;;8.07;;
76065;SDS011;64763;48.928;8.474;2023-12-14T08:53:45;17.63;;;6.97;;
76065;SDS011;64763;48.928;8.474;2023-12-14T08:56:10;16.02;;;6.65;;
76065;SDS011;64763;48.928;8.474;2023-12-14T08:58:36;16.00;;;7.55;;
76065;SDS011;64763;48.928;8.474;2023-12-14T09:01:01;15.30;;;7.65;;
76065;SDS011;64763;48.928;8.474;2023-12-14T09:03:27;16.40;;;8.25;;
76065;SDS011;64763;48.928;8.474;2023-12-14T09:05:52;17.13;;;7.13;;
76065;SDS011;64763;48.928;8.474;2023-12-14T09:08:17;19.98;;;7.57;;
76065;SDS011;64763;48.928;8.474;2023-12-14T09:10:43;15.20;;;7.20;;
76065;SDS011;64763;48.928;8.474;2023-12-14T09:13:09;16.70;;;7.30;;
76065;SDS011;64763;48.928;8.474;2023-12-14T09:15:35;18.33;;;7.45;;
76065;SDS011;64763;48.928;8.474;2023-12-14T09:18:00;13.77;;;6.80;;
76065;SDS011;64763;48.928;8.474;2023-12-14T09:20:25;15.15;;;7.35;;
76065;SDS011;64763;48.928;8.474;2023-12-14T09:22:51;11.73;;;5.57;;
76065;SDS011;64763;48.928;8.474;2023-12-14T09:25:17;15.57;;;7.20;;
76065;SDS011;64763;48.928;8.474;2023-12-14T09:27:43;11.57;;;6.35;;
76065;SDS011;64763;48.928;8.474;2023-12-14T09:30:08;14.32;;;7.28;;
76065;SDS011;64763;48.928;8.474;2023-12-14T09:32:34;13.23;;;6.85;;
76065;SDS011;64763;48.928;8.474;2023-12-14T09:35:00;15.00;;;6.55;;
76065;SDS011;64763;48.928;8.474;2023-12-14T09:37:25;14.68;;;6.43;;
76065;SDS011;64763;48.928;8.474;2023-12-14T09:39:50;12.95;;;6.65;;
76065;SDS011;64763;48.928;8.474;2023-12-14T09:42:17;11.88;;;6.85;;
76065;SDS011;64763;48.928;8.474;2023-12-14T09:44:45;12.55;;;6.40;;
76065;SDS011;64763;48.928;8.474;2023-12-14T09:47:11;13.43;;;7.65;;
76065;SDS011;64763;48.928;8.474;2023-12-14T09:49:36;13.52;;;6.53;;
76065;SDS011;64763;48.928;8.474;2023-12-14T09:52:03;14.15;;;6.70;;
76065;SDS011;64763;48.928;8.474;2023-12-14T09:54:28;17.77;;;6.95;;
76065;SDS011;64763;48.928;8.474;2023-12-14T09:56:53;17.38;;;7.53;;
76065;SDS011;64763;48.928;8.474;2023-12-14T09:59:19;16.00;;;6.95;;
76065;SDS011;64763;48.928;8.474;2023-12-14T10:01:46;11.45;;;6.32;;
76065;SDS011;64763;48.928;8.474;2023-12-14T10:06:44;18.23;;;7.07;;
76065;SDS011;64763;48.928;8.474;2023-12-14T10:09:10;14.35;;;6.72;;
76065;SDS011;64763;48.928;8.474;2023-12-14T10:11:40;11.55;;;6.15;;
76065;SDS011;64763;48.928;8.474;2023-12-14T10:14:24;12.73;;;6.78;;
76065;SDS011;64763;48.928;8.474;2023-12-14T10:16:50;12.40;;;6.60;;
76065;SDS011;64763;48.928;8.474;2023-12-14T10:19:17;11.80;;;6.28;;
76065;SDS011;64763;48.928;8.474;2023-12-14T10:21:43;13.00;;;6.60;;
76065;SDS011;64763;48.928;8.474;2023-12-14T10:24:08;11.65;;;6.10;;
76065;SDS011;64763;48.928;8.474;2023-12-14T10:26:34;12.35;;;6.82;;
76065;SDS011;64763;48.928;8.474;2023-12-14T10:28:59;11.93;;;6.28;;
76065;SDS011;64763;48.928;8.474;2023-12-14T10:31:25;11.88;;;6.20;;
76065;SDS011;64763;48.928;8.474;2023-12-14T10:33:51;15.70;;;6.88;;
76065;SDS011;64763;48.928;8.474;2023-12-14T10:36:19;12.32;;;6.53;;
76065;SDS011;64763;48.928;8.474;2023-12-14T10:38:49;12.65;;;6.35;;
76065;SDS011;64763;48.928;8.474;2023-12-14T10:41:17;11.52;;;6.57;;
76065;SDS011;64763;48.928;8.474;2023-12-14T10:43:43;11.23;;;5.20;;
76065;SDS011;64763;48.928;8.474;2023-12-14T10:46:09;13.20;;;6.13;;
76065;SDS011;64763;48.928;8.474;2023-12-14T10:48:35;12.43;;;6.40;;
76065;SDS011;64763;48.928;8.474;2023-12-14T10:51:03;11.00;;;5.90;;
76065;SDS011;64763;48.928;8.474;2023-12-14T10:53:30;10.10;;;5.32;;
76065;SDS011;64763;48.928;8.474;2023-12-14T10:55:57;9.82;;;5.93;;
76065;SDS011;64763;48.928;8.474;2023-12-14T10:58:25;10.65;;;5.55;;
76065;SDS011;64763;48.928;8.474;2023-12-14T11:00:59;13.10;;;5.70;;
76065;SDS011;64763;48.928;8.474;2023-12-14T11:03:32;10.02;;;5.18;;
76065;SDS011;64763;48.928;8.474;2023-12-14T11:05:59;12.25;;;5.93;;
76065;SDS011;64763;48.928;8.474;2023-12-14T11:08:25;11.38;;;5.97;;
76065;SDS011;64763;48.928;8.474;2023-12-14T11:10:54;10.52;;;5.20;;
76065;SDS011;64763;48.928;8.474;2023-12-14T11:13:22;12.10;;;5.10;;
76065;SDS011;64763;48.928;8.474;2023-12-14T11:15:49;9.80;;;5.53;;
76065;SDS011;64763;48.928;8.474;2023-12-14T11:20:51;9.40;;;5.38;;
76065;SDS011;64763;48.928;8.474;2023-12-14T11:25:53;11.65;;;5.20;;
76065;SDS011;64763;48.928;8.474;2023-12-14T11:28:21;11.18;;;5.50;;
76065;SDS011;64763;48.928;8.474;2023-12-14T11:30:47;11.23;;;6.30;;
76065;SDS011;64763;48.928;8.474;2023-12-14T11:33:13;9.77;;;5.45;;
76065;SDS011;64763;48.928;8.474;2023-12-14T11:35:40;11.75;;;5.93;;
76065;SDS011;64763;48.928;8.474;2023-12-14T11:38:06;9.65;;;5.43;;
76065;SDS011;64763;48.928;8.474;2023-12-14T11:40:41;11.50;;;6.10;;
76065;SDS011;64763;48.928;8.474;2023-12-14T11:43:07;10.98;;;5.80;;
76065;SDS011;64763;48.928;8.474;2023-12-14T11:45:42;11.90;;;6.32;;
76065;SDS011;64763;48.928;8.474;2023-12-14T11:48:08;12.30;;;6.15;;
76065;SDS011;64763;48.928;8.474;2023-12-14T11:50:36;12.10;;;6.35;;
76065;SDS011;64763;48.928;8.474;2023-12-14T11:53:02;12.30;;;5.88;;
76065;SDS011;64763;48.928;8.474;2023-12-14T11:55:31;11.77;;;6.75;;
76065;SDS011;64763;48.928;8.474;2023-12-14T11:57:57;15.57;;;6.72;;
76065;SDS011;64763;48.928;8.474;2023-12-14T12:00:23;13.90;;;6.82;;
76065;SDS011;64763;48.928;8.474;2023-12-14T12:02:50;14.70;;;5.72;;
76065;SDS011;64763;48.928;8.474;2023-12-14T12:05:15;13.60;;;6.55;;
76065;SDS011;64763;48.928;8.474;2023-12-14T12:07:44;13.10;;;7.60;;
76065;SDS011;64763;48.928;8.474;2023-12-14T12:10:10;16.13;;;7.47;;
76065;SDS011;64763;48.928;8.474;2023-12-14T12:12:35;15.27;;;7.43;;
76065;SDS011;64763;48.928;8.474;2023-12-14T12:15:01;16.15;;;8.27;;
76065;SDS011;64763;48.928;8.474;2023-12-14T12:17:26;13.73;;;7.43;;
76065;SDS011;64763;48.928;8.474;2023-12-14T12:19:52;16.52;;;6.97;;
76065;SDS011;64763;48.928;8.474;2023-12-14T12:22:17;15.65;;;6.85;;
76065;SDS011;64763;48.928;8.474;2023-12-14T12:24:43;14.05;;;7.13;;
76065;SDS011;64763;48.928;8.474;2023-12-14T12:27:08;13.30;;;7.35;;
76065;SDS011;64763;48.928;8.474;2023-12-14T12:29:34;15.27;;;7.75;;
76065;SDS011;64763;48.928;8.474;2023-12-14T12:32:00;15.48;;;7.80;;
76065;SDS011;64763;48.928;8.474;2023-12-14T12:34:25;15.75;;;7.95;;
76065;SDS011;64763;48.928;8.474;2023-12-14T12:36:50;17.25;;;8.55;;
76065;SDS011;64763;48.928;8.474;2023-12-14T12:39:16;15.20;;;8.00;;
76065;SDS011;64763;48.928;8.474;2023-12-14T12:41:41;16.75;;;8.18;;
76065;SDS011;64763;48.928;8.474;2023-12-14T12:44:10;13.38;;;6.95;;
76065;SDS011;64763;48.928;8.474;2023-12-14T12:46:35;14.38;;;6.78;;
76065;SDS011;64763;48.928;8.474;2023-12-14T12:49:01;13.73;;;6.97;;
76065;SDS011;64763;48.928;8.474;2023-12-14T12:51:26;12.93;;;6.60;;
76065;SDS011;64763;48.928;8.474;2023-12-14T12:53:52;12.82;;;6.53;;
76065;SDS011;64763;48.928;8.474;2023-12-14T12:56:18;18.02;;;7.78;;
76065;SDS011;64763;48.928;8.474;2023-12-14T12:58:44;12.38;;;5.07;;
76065;SDS011;64763;48.928;8.474;2023-12-14T13:01:13;13.18;;;6.35;;
76065;SDS011;64763;48.928;8.474;2023-12-14T13:03:39;9.93;;;5.60;;
76065;SDS011;64763;48.928;8.474;2023-12-14T13:06:04;11.35;;;6.00;;
76065;SDS011;64763;48.928;8.474;2023-12-14T13:08:33;12.93;;;5.93;;
76065;SDS011;64763;48.928;8.474;2023-12-14T13:10:58;15.80;;;7.25;;
76065;SDS011;64763;48.928;8.474;2023-12-14T13:13:24;18.35;;;7.07;;
76065;SDS011;64763;48.928;8.474;2023-12-14T13:15:50;13.27;;;6.72;;
76065;SDS011;64763;48.928;8.474;2023-12-14T13:18:15;17.52;;;7.10;;
76065;SDS011;64763;48.928;8.474;2023-12-14T13:20:41;14.35;;;7.22;;
76065;SDS011;64763;48.928;8.474;2023-12-14T13:23:07;14.63;;;6.63;;
76065;SDS011;64763;48.928;8.474;2023-12-14T13:25:32;15.73;;;7.10;;
76065;SDS011;64763;48.928;8.474;2023-12-14T13:27:58;14.13;;;7.65;;
76065;SDS011;64763;48.928;8.474;2023-12-14T13:30:23;14.18;;;7.45;;
76065;SDS011;64763;48.928;8.474;2023-12-14T13:32:49;15.65;;;7.25;;
76065;SDS011;64763;48.928;8.474;2023-12-14T13:35:14;11.50;;;6.68;;
76065;SDS011;64763;48.928;8.474;2023-12-14T13:37:40;12.55;;;6.05;;
76065;SDS011;64763;48.928;8.474;2023-12-14T13:40:05;16.20;;;8.00;;
76065;SDS011;64763;48.928;8.474;2023-12-14T13:42:31;15.00;;;6.78;;
76065;SDS011;64763;48.928;8.474;2023-12-14T13:44:57;12.55;;;5.55;;
76065;SDS011;64763;48.928;8.474;2023-12-14T13:47:22;13.68;;;6.88;;
76065;SDS011;64763;48.928;8.474;2023-12-14T13:49:48;15.90;;;6.38;;
76065;SDS011;64763;48.928;8.474;2023-12-14T13:52:13;12.23;;;5.72;;
76065;SDS011;64763;48.928;8.474;2023-12-14T13:54:38;12.70;;;6.43;;
76065;SDS011;64763;48.928;8.474;2023-12-14T13:57:04;12.55;;;6.13;;
76065;SDS011;64763;48.928;8.474;2023-12-14T13:59:29;13.32;;;5.47;;
76065;SDS011;64763;48.928;8.474;2023-12-14T14:01:57;12.07;;;6.28;;
76065;SDS011;64763;48.928;8.474;2023-12-14T14:04:22;13.43;;;5.90;;
76065;SDS011;64763;48.928;8.474;2023-12-14T14:06:48;11.95;;;5.18;;
76065;SDS011;64763;48.928;8.474;2023-12-14T14:09:13;9.98;;;5.35;;
76065;SDS011;64763;48.928;8.474;2023-12-14T14:11:39;10.00;;;5.45;;
76065;SDS011;64763;48.928;8.474;2023-12-14T14:14:10;11.88;;;6.03;;
76065;SDS011;64763;48.928;8.474;2023-12-14T14:16:36;12.63;;;6.30;;
76065;SDS011;64763;48.928;8.474;2023-12-14T14:19:02;15.35;;;6.40;;
76065;SDS011;64763;48.928;8.474;2023-12-14T14:21:27;11.82;;;5.80;;
76065;SDS011;64763;48.928;8.474;2023-12-14T14:23:52;16.55;;;7.15;;
76065;SDS011;64763;48.928;8.474;2023-12-14T14:26:18;13.57;;;7.45;;
76065;SDS011;64763;48.928;8.474;2023-12-14T14:28:43;11.00;;;5.40;;
76065;SDS011;64763;48.928;8.474;2023-12-14T14:31:08;14.63;;;6.07;;
76065;SDS011;64763;48.928;8.474;2023-12-14T14:33:34;12.88;;;5.75;;
76065;SDS011;64763;48.928;8.474;2023-12-14T14:35:59;12.00;;;5.63;;
76065;SDS011;64763;48.928;8.474;2023-12-14T14:38:29;10.35;;;6.00;;
76065;SDS011;64763;48.928;8.474;2023-12-14T14:40:55;9.82;;;5.38;;
76065;SDS011;64763;48.928;8.474;2023-12-14T14:43:20;13.88;;;6.75;;